sensor_id;sensor_type;location;lat;lon;timestamp;P1;durP1;ratioP1;P2;durP2;ratioP2
52738;SDS011;52466;40.122;18.318;2022-07-05T00:00:08;68.85;;;65.20;;
52738;SDS011;52466;40.122;18.318;2022-07-05T00:03:17;68.07;;;64.75;;
52738;SDS011;52466;40.122;18.318;2022-07-05T00:06:24;68.80;;;65.35;;
52738;SDS011;52466;40.122;18.318;2022-07-05T00:09:32;71.05;;;67.03;;
52738;SDS011;52466;40.122;18.318;2022-07-05T00:12:40;69.43;;;65.95;;
52738;SDS011;52466;40.122;18.318;2022-07-05T00:15:48;68.30;;;64.85;;
52738;SDS011;52466;40.122;18.318;2022-07-05T00:18:56;70.13;;;66.78;;
52738;SDS011;52466;40.122;18.318;2022-07-05T00:22:03;68.57;;;65.18;;
52738;SDS011;52466;40.122;18.318;2022-07-05T00:25:12;69.13;;;65.90;;
52738;SDS011;52466;40.122;18.318;2022-07-05T00:28:20;68.80;;;65.38;;
52738;SDS011;52466;40.122;18.318;2022-07-05T00:31:28;70.03;;;66.57;;
52738;SDS011;52466;40.122;18.318;2022-07-05T00:34:35;67.57;;;64.65;;
52738;SDS011;52466;40.122;18.318;2022-07-05T00:37:43;68.78;;;65.57;;
52738;SDS011;52466;40.122;18.318;2022-07-05T00:40:51;69.85;;;66.15;;
52738;SDS011;52466;40.122;18.318;2022-07-05T00:44:00;69.78;;;66.43;;
52738;SDS011;52466;40.122;18.318;2022-07-05T00:47:13;69.03;;;65.63;;
52738;SDS011;52466;40.122;18.318;2022-07-05T00:50:21;68.68;;;65.25;;
52738;SDS011;52466;40.122;18.318;2022-07-05T00:53:29;68.13;;;64.68;;
52738;SDS011;52466;40.122;18.318;2022-07-05T00:56:36;67.30;;;64.03;;
52738;SDS011;52466;40.122;18.318;2022-07-05T00:59:44;67.35;;;63.88;;
52738;SDS011;52466;40.122;18.318;2022-07-05T01:03:04;68.13;;;64.88;;
52738;SDS011;52466;40.122;18.318;2022-07-05T01:07:11;67.70;;;64.55;;
52738;SDS011;52466;40.122;18.318;2022-07-05T01:10:19;68.55;;;65.28;;
52738;SDS011;52466;40.122;18.318;2022-07-05T01:13:27;68.13;;;64.75;;
52738;SDS011;52466;40.122;18.318;2022-07-05T01:16:39;69.35;;;66.05;;
52738;SDS011;52466;40.122;18.318;2022-07-05T01:19:46;68.03;;;64.88;;
52738;SDS011;52466;40.122;18.318;2022-07-05T01:22:56;68.80;;;65.35;;
52738;SDS011;52466;40.122;18.318;2022-07-05T01:26:06;68.90;;;65.78;;
52738;SDS011;52466;40.122;18.318;2022-07-05T01:29:14;68.45;;;65.07;;
52738;SDS011;52466;40.122;18.318;2022-07-05T01:32:23;67.95;;;64.43;;
52738;SDS011;52466;40.122;18.318;2022-07-05T01:35:30;66.95;;;63.70;;
52738;SDS011;52466;40.122;18.318;2022-07-05T01:38:59;66.88;;;63.78;;
52738;SDS011;52466;40.122;18.318;2022-07-05T01:42:08;66.25;;;63.20;;
52738;SDS011;52466;40.122;18.318;2022-07-05T01:45:16;68.32;;;64.72;;
52738;SDS011;52466;40.122;18.318;2022-07-05T01:48:44;68.30;;;64.93;;
52738;SDS011;52466;40.122;18.318;2022-07-05T01:51:54;68.10;;;64.90;;
52738;SDS011;52466;40.122;18.318;2022-07-05T01:55:06;68.05;;;64.90;;
52738;SDS011;52466;40.122;18.318;2022-07-05T01:58:14;66.00;;;62.85;;
52738;SDS011;52466;40.122;18.318;2022-07-05T02:01:32;66.47;;;63.33;;
52738;SDS011;52466;40.122;18.318;2022-07-05T02:04:41;67.70;;;64.25;;
52738;SDS011;52466;40.122;18.318;2022-07-05T02:07:50;67.55;;;64.20;;
52738;SDS011;52466;40.122;18.318;2022-07-05T02:10:57;68.68;;;65.57;;
52738;SDS011;52466;40.122;18.318;2022-07-05T02:14:05;67.97;;;64.82;;
52738;SDS011;52466;40.122;18.318;2022-07-05T02:17:15;66.90;;;63.47;;
52738;SDS011;52466;40.122;18.318;2022-07-05T02:20:27;68.15;;;65.10;;
52738;SDS011;52466;40.122;18.318;2022-07-05T02:23:36;68.53;;;65.15;;
52738;SDS011;52466;40.122;18.318;2022-07-05T02:26:49;66.72;;;63.53;;
52738;SDS011;52466;40.122;18.318;2022-07-05T02:29:57;67.20;;;64.00;;
52738;SDS011;52466;40.122;18.318;2022-07-05T02:33:11;67.55;;;64.35;;
52738;SDS011;52466;40.122;18.318;2022-07-05T02:36:19;68.60;;;65.32;;
52738;SDS011;52466;40.122;18.318;2022-07-05T02:39:27;65.57;;;62.53;;
52738;SDS011;52466;40.122;18.318;2022-07-05T02:42:37;67.50;;;64.22;;
52738;SDS011;52466;40.122;18.318;2022-07-05T02:45:48;67.38;;;64.38;;
52738;SDS011;52466;40.122;18.318;2022-07-05T02:48:56;68.72;;;65.43;;
52738;SDS011;52466;40.122;18.318;2022-07-05T02:52:07;69.55;;;66.25;;
52738;SDS011;52466;40.122;18.318;2022-07-05T02:55:16;66.95;;;63.85;;
52738;SDS011;52466;40.122;18.318;2022-07-05T02:58:23;68.32;;;65.07;;
52738;SDS011;52466;40.122;18.318;2022-07-05T03:01:32;68.72;;;65.07;;
52738;SDS011;52466;40.122;18.318;2022-07-05T03:04:45;70.75;;;67.35;;
52738;SDS011;52466;40.122;18.318;2022-07-05T03:07:54;68.65;;;65.45;;
52738;SDS011;52466;40.122;18.318;2022-07-05T03:11:04;68.85;;;65.60;;
52738;SDS011;52466;40.122;18.318;2022-07-05T03:14:12;70.55;;;67.10;;
52738;SDS011;52466;40.122;18.318;2022-07-05T03:17:22;69.97;;;66.78;;
52738;SDS011;52466;40.122;18.318;2022-07-05T03:20:29;69.35;;;66.15;;
52738;SDS011;52466;40.122;18.318;2022-07-05T03:23:37;69.72;;;66.35;;
52738;SDS011;52466;40.122;18.318;2022-07-05T03:26:45;69.30;;;66.00;;
52738;SDS011;52466;40.122;18.318;2022-07-05T03:29:53;68.80;;;65.35;;
52738;SDS011;52466;40.122;18.318;2022-07-05T03:33:01;69.13;;;65.45;;
52738;SDS011;52466;40.122;18.318;2022-07-05T03:36:12;68.25;;;65.05;;
52738;SDS011;52466;40.122;18.318;2022-07-05T03:39:20;69.13;;;65.93;;
52738;SDS011;52466;40.122;18.318;2022-07-05T03:42:28;69.53;;;65.63;;
52738;SDS011;52466;40.122;18.318;2022-07-05T03:45:35;69.78;;;66.30;;
52738;SDS011;52466;40.122;18.318;2022-07-05T03:48:44;69.22;;;65.93;;
52738;SDS011;52466;40.122;18.318;2022-07-05T03:51:52;69.53;;;66.22;;
52738;SDS011;52466;40.122;18.318;2022-07-05T03:55:00;68.82;;;65.28;;
52738;SDS011;52466;40.122;18.318;2022-07-05T03:58:09;67.88;;;64.85;;
52738;SDS011;52466;40.122;18.318;2022-07-05T04:01:17;70.38;;;67.18;;
52738;SDS011;52466;40.122;18.318;2022-07-05T04:04:26;67.95;;;64.63;;
52738;SDS011;52466;40.122;18.318;2022-07-05T04:07:34;70.53;;;67.18;;
52738;SDS011;52466;40.122;18.318;2022-07-05T04:10:57;71.35;;;67.65;;
52738;SDS011;52466;40.122;18.318;2022-07-05T04:14:04;69.80;;;66.57;;
52738;SDS011;52466;40.122;18.318;2022-07-05T04:17:13;70.55;;;67.25;;
52738;SDS011;52466;40.122;18.318;2022-07-05T04:20:22;70.47;;;67.18;;
52738;SDS011;52466;40.122;18.318;2022-07-05T04:23:31;72.30;;;68.28;;
52738;SDS011;52466;40.122;18.318;2022-07-05T04:26:40;73.80;;;69.85;;
52738;SDS011;52466;40.122;18.318;2022-07-05T04:29:48;71.78;;;68.15;;
52738;SDS011;52466;40.122;18.318;2022-07-05T04:32:56;70.82;;;67.60;;
52738;SDS011;52466;40.122;18.318;2022-07-05T04:36:05;70.22;;;66.45;;
52738;SDS011;52466;40.122;18.318;2022-07-05T04:39:14;70.57;;;66.97;;
52738;SDS011;52466;40.122;18.318;2022-07-05T04:42:29;69.85;;;66.32;;
52738;SDS011;52466;40.122;18.318;2022-07-05T04:45:38;71.10;;;67.78;;
52738;SDS011;52466;40.122;18.318;2022-07-05T04:48:46;71.22;;;67.72;;
52738;SDS011;52466;40.122;18.318;2022-07-05T04:51:54;68.55;;;65.32;;
52738;SDS011;52466;40.122;18.318;2022-07-05T04:54:57;70.25;;;66.88;;
52738;SDS011;52466;40.122;18.318;2022-07-05T04:58:05;68.78;;;65.55;;
52738;SDS011;52466;40.122;18.318;2022-07-05T05:01:12;71.65;;;68.00;;
52738;SDS011;52466;40.122;18.318;2022-07-05T05:04:20;69.07;;;65.95;;
52738;SDS011;52466;40.122;18.318;2022-07-05T05:07:28;69.80;;;66.35;;
52738;SDS011;52466;40.122;18.318;2022-07-05T05:10:36;69.63;;;66.43;;
52738;SDS011;52466;40.122;18.318;2022-07-05T05:13:44;73.10;;;69.53;;
52738;SDS011;52466;40.122;18.318;2022-07-05T05:16:52;70.63;;;67.25;;
52738;SDS011;52466;40.122;18.318;2022-07-05T05:20:00;69.35;;;66.00;;
52738;SDS011;52466;40.122;18.318;2022-07-05T05:23:07;70.78;;;67.60;;
52738;SDS011;52466;40.122;18.318;2022-07-05T05:26:15;70.53;;;67.20;;
52738;SDS011;52466;40.122;18.318;2022-07-05T05:29:23;69.18;;;65.97;;
52738;SDS011;52466;40.122;18.318;2022-07-05T05:32:30;69.93;;;66.53;;
52738;SDS011;52466;40.122;18.318;2022-07-05T05:35:39;69.95;;;66.55;;
52738;SDS011;52466;40.122;18.318;2022-07-05T05:38:47;68.63;;;65.30;;
52738;SDS011;52466;40.122;18.318;2022-07-05T05:41:54;68.32;;;65.38;;
52738;SDS011;52466;40.122;18.318;2022-07-05T05:45:02;70.78;;;67.30;;
52738;SDS011;52466;40.122;18.318;2022-07-05T05:48:10;68.78;;;65.47;;
52738;SDS011;52466;40.122;18.318;2022-07-05T05:51:18;69.03;;;65.78;;
52738;SDS011;52466;40.122;18.318;2022-07-05T05:54:26;67.65;;;64.38;;
52738;SDS011;52466;40.122;18.318;2022-07-05T05:57:34;70.30;;;66.88;;
52738;SDS011;52466;40.122;18.318;2022-07-05T06:00:42;67.80;;;64.47;;
52738;SDS011;52466;40.122;18.318;2022-07-05T06:03:55;71.47;;;67.95;;
52738;SDS011;52466;40.122;18.318;2022-07-05T06:07:02;67.97;;;64.95;;
52738;SDS011;52466;40.122;18.318;2022-07-05T06:10:10;70.75;;;67.47;;
52738;SDS011;52466;40.122;18.318;2022-07-05T06:13:21;68.40;;;65.50;;
52738;SDS011;52466;40.122;18.318;2022-07-05T06:16:29;68.60;;;65.47;;
52738;SDS011;52466;40.122;18.318;2022-07-05T06:19:37;65.53;;;62.58;;
52738;SDS011;52466;40.122;18.318;2022-07-05T06:22:45;64.78;;;61.92;;
52738;SDS011;52466;40.122;18.318;2022-07-05T06:25:53;67.30;;;64.22;;
52738;SDS011;52466;40.122;18.318;2022-07-05T06:29:00;67.60;;;64.72;;
52738;SDS011;52466;40.122;18.318;2022-07-05T06:32:08;67.93;;;65.13;;
52738;SDS011;52466;40.122;18.318;2022-07-05T06:35:16;67.65;;;64.60;;
52738;SDS011;52466;40.122;18.318;2022-07-05T06:38:24;65.15;;;62.45;;
52738;SDS011;52466;40.122;18.318;2022-07-05T06:41:32;68.18;;;64.93;;
52738;SDS011;52466;40.122;18.318;2022-07-05T06:44:39;66.80;;;63.95;;
52738;SDS011;52466;40.122;18.318;2022-07-05T06:47:57;66.22;;;63.38;;
52738;SDS011;52466;40.122;18.318;2022-07-05T06:51:09;65.10;;;61.83;;
52738;SDS011;52466;40.122;18.318;2022-07-05T06:54:17;65.18;;;62.00;;
52738;SDS011;52466;40.122;18.318;2022-07-05T06:57:25;66.22;;;63.22;;
52738;SDS011;52466;40.122;18.318;2022-07-05T07:00:33;65.18;;;62.42;;
52738;SDS011;52466;40.122;18.318;2022-07-05T07:03:42;64.18;;;61.28;;
52738;SDS011;52466;40.122;18.318;2022-07-05T07:06:50;65.82;;;62.90;;
52738;SDS011;52466;40.122;18.318;2022-07-05T07:09:58;67.20;;;64.20;;
52738;SDS011;52466;40.122;18.318;2022-07-05T07:13:07;67.38;;;64.25;;
52738;SDS011;52466;40.122;18.318;2022-07-05T07:16:14;64.82;;;61.80;;
52738;SDS011;52466;40.122;18.318;2022-07-05T07:19:22;66.43;;;63.20;;
52738;SDS011;52466;40.122;18.318;2022-07-05T07:22:30;66.75;;;63.83;;
52738;SDS011;52466;40.122;18.318;2022-07-05T07:25:38;66.57;;;63.35;;
52738;SDS011;52466;40.122;18.318;2022-07-05T07:28:46;65.75;;;62.85;;
52738;SDS011;52466;40.122;18.318;2022-07-05T07:31:54;67.22;;;64.10;;
52738;SDS011;52466;40.122;18.318;2022-07-05T07:35:02;64.72;;;61.75;;
52738;SDS011;52466;40.122;18.318;2022-07-05T07:38:10;64.07;;;61.17;;
52738;SDS011;52466;40.122;18.318;2022-07-05T07:41:18;65.05;;;62.35;;
52738;SDS011;52466;40.122;18.318;2022-07-05T07:44:25;65.90;;;62.67;;
52738;SDS011;52466;40.122;18.318;2022-07-05T07:47:34;65.82;;;62.72;;
52738;SDS011;52466;40.122;18.318;2022-07-05T07:50:42;66.38;;;62.97;;
52738;SDS011;52466;40.122;18.318;2022-07-05T07:53:50;65.03;;;62.35;;
52738;SDS011;52466;40.122;18.318;2022-07-05T07:56:57;66.20;;;63.60;;
52738;SDS011;52466;40.122;18.318;2022-07-05T08:00:06;64.75;;;61.97;;
52738;SDS011;52466;40.122;18.318;2022-07-05T08:03:15;65.82;;;62.80;;
52738;SDS011;52466;40.122;18.318;2022-07-05T08:06:22;64.97;;;62.28;;
52738;SDS011;52466;40.122;18.318;2022-07-05T08:09:30;64.13;;;61.30;;
52738;SDS011;52466;40.122;18.318;2022-07-05T08:12:38;65.85;;;62.00;;
52738;SDS011;52466;40.122;18.318;2022-07-05T08:15:47;63.05;;;60.30;;
52738;SDS011;52466;40.122;18.318;2022-07-05T08:18:54;65.85;;;63.05;;
52738;SDS011;52466;40.122;18.318;2022-07-05T08:22:21;64.53;;;61.63;;
52738;SDS011;52466;40.122;18.318;2022-07-05T08:25:29;66.38;;;63.67;;
52738;SDS011;52466;40.122;18.318;2022-07-05T08:28:37;63.10;;;60.35;;
52738;SDS011;52466;40.122;18.318;2022-07-05T08:31:46;63.83;;;61.22;;
52738;SDS011;52466;40.122;18.318;2022-07-05T08:34:55;63.17;;;60.38;;
52738;SDS011;52466;40.122;18.318;2022-07-05T08:38:02;64.35;;;61.70;;
52738;SDS011;52466;40.122;18.318;2022-07-05T08:41:10;64.15;;;61.25;;
52738;SDS011;52466;40.122;18.318;2022-07-05T08:44:19;63.55;;;60.67;;
52738;SDS011;52466;40.122;18.318;2022-07-05T08:47:28;62.10;;;59.40;;
52738;SDS011;52466;40.122;18.318;2022-07-05T08:50:37;61.40;;;58.80;;
52738;SDS011;52466;40.122;18.318;2022-07-05T08:53:47;64.47;;;61.80;;
52738;SDS011;52466;40.122;18.318;2022-07-05T08:56:56;62.17;;;59.35;;
52738;SDS011;52466;40.122;18.318;2022-07-05T09:00:04;62.33;;;59.83;;
52738;SDS011;52466;40.122;18.318;2022-07-05T09:03:12;61.42;;;58.72;;
52738;SDS011;52466;40.122;18.318;2022-07-05T09:06:22;63.10;;;60.30;;
52738;SDS011;52466;40.122;18.318;2022-07-05T09:09:32;63.85;;;61.05;;
52738;SDS011;52466;40.122;18.318;2022-07-05T09:12:40;60.92;;;58.25;;
52738;SDS011;52466;40.122;18.318;2022-07-05T09:15:48;62.40;;;59.50;;
52738;SDS011;52466;40.122;18.318;2022-07-05T09:18:56;62.90;;;59.88;;
52738;SDS011;52466;40.122;18.318;2022-07-05T09:22:04;60.80;;;58.03;;
52738;SDS011;52466;40.122;18.318;2022-07-05T09:25:13;62.13;;;59.53;;
52738;SDS011;52466;40.122;18.318;2022-07-05T09:28:29;61.35;;;58.85;;
52738;SDS011;52466;40.122;18.318;2022-07-05T09:31:38;60.88;;;58.33;;
52738;SDS011;52466;40.122;18.318;2022-07-05T09:34:47;62.70;;;60.00;;
52738;SDS011;52466;40.122;18.318;2022-07-05T09:37:55;63.63;;;61.03;;
52738;SDS011;52466;40.122;18.318;2022-07-05T09:41:02;61.08;;;58.50;;
52738;SDS011;52466;40.122;18.318;2022-07-05T09:44:10;63.30;;;60.55;;
52738;SDS011;52466;40.122;18.318;2022-07-05T09:47:21;62.10;;;59.33;;
52738;SDS011;52466;40.122;18.318;2022-07-05T09:50:36;63.75;;;61.20;;
52738;SDS011;52466;40.122;18.318;2022-07-05T09:53:51;62.38;;;59.67;;
52738;SDS011;52466;40.122;18.318;2022-07-05T09:57:00;63.05;;;60.25;;
52738;SDS011;52466;40.122;18.318;2022-07-05T10:03:53;63.20;;;60.40;;
52738;SDS011;52466;40.122;18.318;2022-07-05T10:07:02;61.15;;;58.60;;
52738;SDS011;52466;40.122;18.318;2022-07-05T10:10:13;63.63;;;61.08;;
52738;SDS011;52466;40.122;18.318;2022-07-05T10:13:25;63.42;;;60.67;;
52738;SDS011;52466;40.122;18.318;2022-07-05T10:16:35;64.15;;;61.53;;
52738;SDS011;52466;40.122;18.318;2022-07-05T10:19:43;61.65;;;59.03;;
52738;SDS011;52466;40.122;18.318;2022-07-05T10:22:54;63.67;;;60.97;;
52738;SDS011;52466;40.122;18.318;2022-07-05T10:26:03;65.00;;;60.30;;
52738;SDS011;52466;40.122;18.318;2022-07-05T10:29:13;63.25;;;60.47;;
52738;SDS011;52466;40.122;18.318;2022-07-05T10:32:22;62.50;;;59.90;;
52738;SDS011;52466;40.122;18.318;2022-07-05T10:35:31;63.15;;;60.33;;
52738;SDS011;52466;40.122;18.318;2022-07-05T10:38:41;65.35;;;62.55;;
52738;SDS011;52466;40.122;18.318;2022-07-05T10:41:50;63.15;;;60.38;;
52738;SDS011;52466;40.122;18.318;2022-07-05T10:44:59;63.97;;;61.05;;
52738;SDS011;52466;40.122;18.318;2022-07-05T10:51:46;64.70;;;61.88;;
52738;SDS011;52466;40.122;18.318;2022-07-05T10:55:31;62.58;;;59.80;;
52738;SDS011;52466;40.122;18.318;2022-07-05T10:59:08;62.75;;;59.85;;
52738;SDS011;52466;40.122;18.318;2022-07-05T11:02:20;66.20;;;63.40;;
52738;SDS011;52466;40.122;18.318;2022-07-05T11:05:38;64.18;;;61.22;;
52738;SDS011;52466;40.122;18.318;2022-07-05T11:12:11;64.40;;;61.08;;
52738;SDS011;52466;40.122;18.318;2022-07-05T11:15:24;64.82;;;62.08;;
52738;SDS011;52466;40.122;18.318;2022-07-05T11:18:44;64.90;;;61.80;;
52738;SDS011;52466;40.122;18.318;2022-07-05T11:22:04;66.30;;;63.25;;
52738;SDS011;52466;40.122;18.318;2022-07-05T11:25:14;66.18;;;63.13;;
52738;SDS011;52466;40.122;18.318;2022-07-05T11:28:23;65.68;;;62.58;;
52738;SDS011;52466;40.122;18.318;2022-07-05T11:31:40;66.15;;;63.28;;
52738;SDS011;52466;40.122;18.318;2022-07-05T11:34:55;65.60;;;62.50;;
52738;SDS011;52466;40.122;18.318;2022-07-05T11:38:58;66.05;;;63.22;;
52738;SDS011;52466;40.122;18.318;2022-07-05T11:42:27;66.32;;;63.22;;
52738;SDS011;52466;40.122;18.318;2022-07-05T11:45:35;64.07;;;61.05;;
52738;SDS011;52466;40.122;18.318;2022-07-05T11:48:42;61.70;;;59.00;;
52738;SDS011;52466;40.122;18.318;2022-07-05T11:51:57;63.95;;;61.10;;
52738;SDS011;52466;40.122;18.318;2022-07-05T11:55:07;65.80;;;62.85;;
52738;SDS011;52466;40.122;18.318;2022-07-05T11:58:18;64.20;;;61.35;;
52738;SDS011;52466;40.122;18.318;2022-07-05T12:01:26;63.35;;;60.65;;
52738;SDS011;52466;40.122;18.318;2022-07-05T12:04:34;65.18;;;62.25;;
52738;SDS011;52466;40.122;18.318;2022-07-05T12:07:55;64.82;;;62.20;;
52738;SDS011;52466;40.122;18.318;2022-07-05T12:11:03;62.63;;;59.92;;
52738;SDS011;52466;40.122;18.318;2022-07-05T12:14:29;64.10;;;61.08;;
52738;SDS011;52466;40.122;18.318;2022-07-05T12:17:38;64.57;;;61.75;;
52738;SDS011;52466;40.122;18.318;2022-07-05T12:20:49;62.38;;;59.88;;
52738;SDS011;52466;40.122;18.318;2022-07-05T12:23:56;64.60;;;62.10;;
52738;SDS011;52466;40.122;18.318;2022-07-05T12:27:05;64.40;;;61.40;;
52738;SDS011;52466;40.122;18.318;2022-07-05T12:30:13;62.05;;;59.45;;
52738;SDS011;52466;40.122;18.318;2022-07-05T12:33:22;63.10;;;60.58;;
52738;SDS011;52466;40.122;18.318;2022-07-05T12:36:29;62.20;;;59.38;;
52738;SDS011;52466;40.122;18.318;2022-07-05T12:39:37;62.53;;;59.70;;
52738;SDS011;52466;40.122;18.318;2022-07-05T12:42:40;62.40;;;59.37;;
52738;SDS011;52466;40.122;18.318;2022-07-05T12:46:01;61.67;;;59.08;;
52738;SDS011;52466;40.122;18.318;2022-07-05T12:49:09;63.38;;;60.75;;
52738;SDS011;52466;40.122;18.318;2022-07-05T12:52:17;63.22;;;60.50;;
52738;SDS011;52466;40.122;18.318;2022-07-05T12:55:34;64.10;;;61.40;;
52738;SDS011;52466;40.122;18.318;2022-07-05T12:59:02;61.10;;;58.35;;
52738;SDS011;52466;40.122;18.318;2022-07-05T13:02:11;61.45;;;58.72;;
52738;SDS011;52466;40.122;18.318;2022-07-05T13:05:21;62.08;;;59.47;;
52738;SDS011;52466;40.122;18.318;2022-07-05T13:08:31;61.47;;;59.08;;
52738;SDS011;52466;40.122;18.318;2022-07-05T13:11:39;63.03;;;60.33;;
52738;SDS011;52466;40.122;18.318;2022-07-05T13:14:47;62.10;;;59.55;;
52738;SDS011;52466;40.122;18.318;2022-07-05T13:17:56;63.35;;;60.40;;
52738;SDS011;52466;40.122;18.318;2022-07-05T13:21:03;62.05;;;59.30;;
52738;SDS011;52466;40.122;18.318;2022-07-05T13:24:11;61.65;;;59.05;;
52738;SDS011;52466;40.122;18.318;2022-07-05T13:27:19;60.55;;;58.13;;
52738;SDS011;52466;40.122;18.318;2022-07-05T13:30:26;62.08;;;59.45;;
52738;SDS011;52466;40.122;18.318;2022-07-05T13:33:34;63.90;;;61.20;;
52738;SDS011;52466;40.122;18.318;2022-07-05T13:36:42;61.67;;;58.33;;
52738;SDS011;52466;40.122;18.318;2022-07-05T13:39:49;61.40;;;58.90;;
52738;SDS011;52466;40.122;18.318;2022-07-05T13:42:57;61.60;;;58.90;;
52738;SDS011;52466;40.122;18.318;2022-07-05T13:46:05;62.15;;;59.55;;
52738;SDS011;52466;40.122;18.318;2022-07-05T13:49:13;63.10;;;60.10;;
52738;SDS011;52466;40.122;18.318;2022-07-05T13:52:21;60.60;;;58.20;;
52738;SDS011;52466;40.122;18.318;2022-07-05T13:55:29;62.95;;;59.08;;
52738;SDS011;52466;40.122;18.318;2022-07-05T13:58:37;61.20;;;58.55;;
52738;SDS011;52466;40.122;18.318;2022-07-05T14:01:45;61.20;;;58.60;;
52738;SDS011;52466;40.122;18.318;2022-07-05T14:04:53;63.33;;;60.65;;
52738;SDS011;52466;40.122;18.318;2022-07-05T14:08:00;62.60;;;59.85;;
52738;SDS011;52466;40.122;18.318;2022-07-05T14:11:08;61.55;;;59.00;;
52738;SDS011;52466;40.122;18.318;2022-07-05T14:14:16;62.33;;;59.53;;
52738;SDS011;52466;40.122;18.318;2022-07-05T14:17:24;62.33;;;59.60;;
52738;SDS011;52466;40.122;18.318;2022-07-05T14:20:32;62.28;;;59.58;;
52738;SDS011;52466;40.122;18.318;2022-07-05T14:23:40;62.30;;;59.60;;
52738;SDS011;52466;40.122;18.318;2022-07-05T14:26:49;64.25;;;61.53;;
52738;SDS011;52466;40.122;18.318;2022-07-05T14:29:56;63.28;;;60.17;;
52738;SDS011;52466;40.122;18.318;2022-07-05T14:33:04;63.53;;;60.72;;
52738;SDS011;52466;40.122;18.318;2022-07-05T14:36:13;63.10;;;60.05;;
52738;SDS011;52466;40.122;18.318;2022-07-05T14:39:20;65.63;;;62.83;;
52738;SDS011;52466;40.122;18.318;2022-07-05T14:42:28;63.97;;;60.78;;
52738;SDS011;52466;40.122;18.318;2022-07-05T14:45:38;62.67;;;59.85;;
52738;SDS011;52466;40.122;18.318;2022-07-05T14:48:46;63.20;;;60.30;;
52738;SDS011;52466;40.122;18.318;2022-07-05T14:51:56;64.47;;;61.38;;
52738;SDS011;52466;40.122;18.318;2022-07-05T14:55:04;63.85;;;60.95;;
52738;SDS011;52466;40.122;18.318;2022-07-05T14:58:12;65.00;;;62.20;;
52738;SDS011;52466;40.122;18.318;2022-07-05T15:01:29;63.63;;;60.70;;
52738;SDS011;52466;40.122;18.318;2022-07-05T15:05:37;64.18;;;61.08;;
52738;SDS011;52466;40.122;18.318;2022-07-05T15:08:44;63.28;;;60.20;;
52738;SDS011;52466;40.122;18.318;2022-07-05T15:12:02;62.70;;;59.67;;
52738;SDS011;52466;40.122;18.318;2022-07-05T15:18:55;61.85;;;58.85;;
52738;SDS011;52466;40.122;18.318;2022-07-05T15:22:02;62.63;;;59.53;;
52738;SDS011;52466;40.122;18.318;2022-07-05T15:25:17;63.05;;;60.17;;
52738;SDS011;52466;40.122;18.318;2022-07-05T15:28:31;65.68;;;62.70;;
52738;SDS011;52466;40.122;18.318;2022-07-05T15:31:39;68.72;;;65.25;;
52738;SDS011;52466;40.122;18.318;2022-07-05T15:34:47;75.07;;;70.93;;
52738;SDS011;52466;40.122;18.318;2022-07-05T15:37:55;73.18;;;69.13;;
52738;SDS011;52466;40.122;18.318;2022-07-05T15:41:03;72.15;;;68.25;;
52738;SDS011;52466;40.122;18.318;2022-07-05T15:44:10;67.35;;;63.78;;
52738;SDS011;52466;40.122;18.318;2022-07-05T15:47:18;68.43;;;64.55;;
52738;SDS011;52466;40.122;18.318;2022-07-05T15:50:26;70.30;;;66.47;;
52738;SDS011;52466;40.122;18.318;2022-07-05T15:53:34;72.43;;;68.40;;
52738;SDS011;52466;40.122;18.318;2022-07-05T15:56:42;77.55;;;72.72;;
52738;SDS011;52466;40.122;18.318;2022-07-05T15:59:50;77.65;;;73.03;;
52738;SDS011;52466;40.122;18.318;2022-07-05T16:02:57;79.28;;;74.38;;
52738;SDS011;52466;40.122;18.318;2022-07-05T16:06:05;86.00;;;80.13;;
52738;SDS011;52466;40.122;18.318;2022-07-05T16:09:13;79.07;;;74.38;;
52738;SDS011;52466;40.122;18.318;2022-07-05T16:12:21;76.35;;;71.95;;
52738;SDS011;52466;40.122;18.318;2022-07-05T16:15:29;71.57;;;67.78;;
52738;SDS011;52466;40.122;18.318;2022-07-05T16:18:55;71.38;;;67.80;;
52738;SDS011;52466;40.122;18.318;2022-07-05T16:22:04;70.55;;;66.72;;
52738;SDS011;52466;40.122;18.318;2022-07-05T16:25:12;74.95;;;70.72;;
52738;SDS011;52466;40.122;18.318;2022-07-05T16:28:21;71.20;;;67.30;;
52738;SDS011;52466;40.122;18.318;2022-07-05T16:31:30;68.78;;;64.95;;
52738;SDS011;52466;40.122;18.318;2022-07-05T16:34:38;68.72;;;65.07;;
52738;SDS011;52466;40.122;18.318;2022-07-05T16:37:46;69.35;;;65.80;;
52738;SDS011;52466;40.122;18.318;2022-07-05T16:40:53;67.90;;;64.40;;
52738;SDS011;52466;40.122;18.318;2022-07-05T16:44:01;66.05;;;62.85;;
52738;SDS011;52466;40.122;18.318;2022-07-05T16:47:10;63.90;;;60.97;;
52738;SDS011;52466;40.122;18.318;2022-07-05T16:50:17;62.72;;;59.83;;
52738;SDS011;52466;40.122;18.318;2022-07-05T16:53:25;63.17;;;60.38;;
52738;SDS011;52466;40.122;18.318;2022-07-05T16:56:33;62.05;;;59.45;;
52738;SDS011;52466;40.122;18.318;2022-07-05T16:59:40;61.95;;;59.45;;
52738;SDS011;52466;40.122;18.318;2022-07-05T17:02:48;62.17;;;59.08;;
52738;SDS011;52466;40.122;18.318;2022-07-05T17:05:56;61.35;;;58.75;;
52738;SDS011;52466;40.122;18.318;2022-07-05T17:09:04;62.08;;;59.42;;
52738;SDS011;52466;40.122;18.318;2022-07-05T17:12:12;61.78;;;59.08;;
52738;SDS011;52466;40.122;18.318;2022-07-05T17:15:19;62.70;;;59.88;;
52738;SDS011;52466;40.122;18.318;2022-07-05T17:18:27;61.72;;;59.22;;
52738;SDS011;52466;40.122;18.318;2022-07-05T17:21:35;63.47;;;60.67;;
52738;SDS011;52466;40.122;18.318;2022-07-05T17:24:44;62.22;;;59.55;;
52738;SDS011;52466;40.122;18.318;2022-07-05T17:27:52;63.30;;;60.60;;
52738;SDS011;52466;40.122;18.318;2022-07-05T17:30:59;62.25;;;59.30;;
52738;SDS011;52466;40.122;18.318;2022-07-05T17:34:07;62.40;;;59.70;;
52738;SDS011;52466;40.122;18.318;2022-07-05T17:37:15;62.75;;;60.05;;
52738;SDS011;52466;40.122;18.318;2022-07-05T17:40:22;61.85;;;59.15;;
52738;SDS011;52466;40.122;18.318;2022-07-05T17:43:30;63.38;;;60.67;;
52738;SDS011;52466;40.122;18.318;2022-07-05T17:46:38;63.72;;;61.13;;
52738;SDS011;52466;40.122;18.318;2022-07-05T17:49:48;64.63;;;61.75;;
52738;SDS011;52466;40.122;18.318;2022-07-05T17:52:56;64.15;;;61.25;;
52738;SDS011;52466;40.122;18.318;2022-07-05T17:56:12;63.25;;;60.63;;
52738;SDS011;52466;40.122;18.318;2022-07-05T17:59:21;64.50;;;61.40;;
52738;SDS011;52466;40.122;18.318;2022-07-05T18:02:28;63.65;;;61.05;;
52738;SDS011;52466;40.122;18.318;2022-07-05T18:05:36;63.42;;;60.72;;
52738;SDS011;52466;40.122;18.318;2022-07-05T18:08:44;64.43;;;61.33;;
52738;SDS011;52466;40.122;18.318;2022-07-05T18:11:51;63.28;;;60.65;;
52738;SDS011;52466;40.122;18.318;2022-07-05T18:14:59;62.83;;;60.15;;
52738;SDS011;52466;40.122;18.318;2022-07-05T18:18:07;63.65;;;61.08;;
52738;SDS011;52466;40.122;18.318;2022-07-05T18:21:16;61.47;;;58.80;;
52738;SDS011;52466;40.122;18.318;2022-07-05T18:24:25;63.28;;;60.38;;
52738;SDS011;52466;40.122;18.318;2022-07-05T18:27:33;63.90;;;60.78;;